sensor_id;sensor_type;location;lat;lon;timestamp;temperature;humidity
23568;DHT22;11962;50.838;4.430;2023-10-09T00:02:22;18.00;99.90
23568;DHT22;11962;50.838;4.430;2023-10-09T00:04:48;18.00;99.90
23568;DHT22;11962;50.838;4.430;2023-10-09T00:07:16;18.00;99.90
23568;DHT22;11962;50.838;4.430;2023-10-09T00:09:42;18.10;99.90
23568;DHT22;11962;50.838;4.430;2023-10-09T00:12:17;18.10;99.90
23568;DHT22;11962;50.838;4.430;2023-10-09T00:14:48;18.10;99.90
23568;DHT22;11962;50.838;4.430;2023-10-09T00:17:17;18.10;99.90
23568;DHT22;11962;50.838;4.430;2023-10-09T00:19:46;18.10;99.90
23568;DHT22;11962;50.838;4.430;2023-10-09T00:22:25;18.10;99.90
23568;DHT22;11962;50.838;4.430;2023-10-09T00:24:57;18.10;99.90
23568;DHT22;11962;50.838;4.430;2023-10-09T00:27:40;18.10;99.90
23568;DHT22;11962;50.838;4.430;2023-10-09T00:30:15;18.10;99.90
23568;DHT22;11962;50.838;4.430;2023-10-09T00:32:45;18.10;99.90
23568;DHT22;11962;50.838;4.430;2023-10-09T00:35:23;18.10;99.90
23568;DHT22;11962;50.838;4.430;2023-10-09T00:38:05;18.20;99.90
23568;DHT22;11962;50.838;4.430;2023-10-09T00:40:51;18.20;99.90
23568;DHT22;11962;50.838;4.430;2023-10-09T00:43:29;18.20;99.90
23568;DHT22;11962;50.838;4.430;2023-10-09T00:45:57;18.20;99.90
23568;DHT22;11962;50.838;4.430;2023-10-09T00:48:36;18.20;99.90
23568;DHT22;11962;50.838;4.430;2023-10-09T00:51:06;18.20;99.90
23568;DHT22;11962;50.838;4.430;2023-10-09T00:53:46;18.20;99.90
23568;DHT22;11962;50.838;4.430;2023-10-09T00:56:20;18.20;99.90
23568;DHT22;11962;50.838;4.430;2023-10-09T00:58:54;18.20;99.90
23568;DHT22;11962;50.838;4.430;2023-10-09T01:01:32;18.30;99.90
23568;DHT22;11962;50.838;4.430;2023-10-09T01:04:01;18.30;99.90
23568;DHT22;11962;50.838;4.430;2023-10-09T01:06:33;18.30;99.90
23568;DHT22;11962;50.838;4.430;2023-10-09T01:08:59;18.30;99.90
23568;DHT22;11962;50.838;4.430;2023-10-09T01:11:41;18.30;99.90
23568;DHT22;11962;50.838;4.430;2023-10-09T01:14:33;18.30;99.90
23568;DHT22;11962;50.838;4.430;2023-10-09T01:17:02;18.30;99.90
23568;DHT22;11962;50.838;4.430;2023-10-09T01:19:33;18.40;99.90
23568;DHT22;11962;50.838;4.430;2023-10-09T01:21:59;18.40;99.90
23568;DHT22;11962;50.838;4.430;2023-10-09T01:24:41;18.40;99.90
23568;DHT22;11962;50.838;4.430;2023-10-09T01:27:07;18.30;99.90
23568;DHT22;11962;50.838;4.430;2023-10-09T01:29:40;18.30;99.90
23568;DHT22;11962;50.838;4.430;2023-10-09T01:32:07;18.30;99.90
23568;DHT22;11962;50.838;4.430;2023-10-09T01:34:42;18.40;99.90
23568;DHT22;11962;50.838;4.430;2023-10-09T01:37:09;18.30;99.90
23568;DHT22;11962;50.838;4.430;2023-10-09T01:42:17;18.30;99.90
23568;DHT22;11962;50.838;4.430;2023-10-09T01:44:56;18.40;99.90
23568;DHT22;11962;50.838;4.430;2023-10-09T01:47:24;18.40;99.90
23568;DHT22;11962;50.838;4.430;2023-10-09T01:49:51;18.40;99.90
23568;DHT22;11962;50.838;4.430;2023-10-09T01:52:19;18.30;99.90
23568;DHT22;11962;50.838;4.430;2023-10-09T01:54:47;18.30;99.90
23568;DHT22;11962;50.838;4.430;2023-10-09T01:57:15;18.30;99.90
23568;DHT22;11962;50.838;4.430;2023-10-09T01:59:44;18.30;99.90
23568;DHT22;11962;50.838;4.430;2023-10-09T02:02:15;18.30;99.90
23568;DHT22;11962;50.838;4.430;2023-10-09T02:05:03;18.30;99.90
23568;DHT22;11962;50.838;4.430;2023-10-09T02:07:49;18.30;99.90
23568;DHT22;11962;50.838;4.430;2023-10-09T02:10:21;18.30;99.90
23568;DHT22;11962;50.838;4.430;2023-10-09T02:12:50;18.30;99.90
23568;DHT22;11962;50.838;4.430;2023-10-09T02:15:36;18.30;99.90
23568;DHT22;11962;50.838;4.430;2023-10-09T02:20:49;18.30;99.90
23568;DHT22;11962;50.838;4.430;2023-10-09T02:23:34;18.20;99.90
23568;DHT22;11962;50.838;4.430;2023-10-09T02:26:12;18.20;99.90
23568;DHT22;11962;50.838;4.430;2023-10-09T02:29:00;18.20;99.90
23568;DHT22;11962;50.838;4.430;2023-10-09T02:31:34;18.20;99.90
23568;DHT22;11962;50.838;4.430;2023-10-09T02:34:07;18.30;99.90
23568;DHT22;11962;50.838;4.430;2023-10-09T02:36:41;18.20;99.90
23568;DHT22;11962;50.838;4.430;2023-10-09T02:39:15;18.30;99.90
23568;DHT22;11962;50.838;4.430;2023-10-09T02:41:57;18.20;99.90
23568;DHT22;11962;50.838;4.430;2023-10-09T02:44:31;18.20;99.90
23568;DHT22;11962;50.838;4.430;2023-10-09T02:47:04;18.20;99.90
23568;DHT22;11962;50.838;4.430;2023-10-09T02:49:38;18.20;99.90
23568;DHT22;11962;50.838;4.430;2023-10-09T02:52:05;18.20;99.90
23568;DHT22;11962;50.838;4.430;2023-10-09T02:54:33;18.20;99.90
23568;DHT22;11962;50.838;4.430;2023-10-09T02:57:07;18.20;99.90
23568;DHT22;11962;50.838;4.430;2023-10-09T02:59:36;18.20;99.90
23568;DHT22;11962;50.838;4.430;2023-10-09T03:02:07;18.20;99.90
23568;DHT22;11962;50.838;4.430;2023-10-09T03:04:33;18.20;99.90
23568;DHT22;11962;50.838;4.430;2023-10-09T03:06:59;18.20;99.90
23568;DHT22;11962;50.838;4.430;2023-10-09T03:09:25;18.20;99.90
23568;DHT22;11962;50.838;4.430;2023-10-09T03:11:58;18.30;99.90
23568;DHT22;11962;50.838;4.430;2023-10-09T03:14:28;18.30;99.90
23568;DHT22;11962;50.838;4.430;2023-10-09T03:16:55;18.30;99.90
23568;DHT22;11962;50.838;4.430;2023-10-09T03:19:26;18.30;99.90
23568;DHT22;11962;50.838;4.430;2023-10-09T03:21:55;18.30;99.90
23568;DHT22;11962;50.838;4.430;2023-10-09T03:24:25;18.30;99.90
23568;DHT22;11962;50.838;4.430;2023-10-09T03:26:52;18.20;99.90
23568;DHT22;11962;50.838;4.430;2023-10-09T03:29:21;18.20;99.90
23568;DHT22;11962;50.838;4.430;2023-10-09T03:31:47;18.20;99.90
23568;DHT22;11962;50.838;4.430;2023-10-09T03:34:15;18.10;99.90
23568;DHT22;11962;50.838;4.430;2023-10-09T03:36:41;18.10;99.90
23568;DHT22;11962;50.838;4.430;2023-10-09T03:39:09;18.00;99.90
23568;DHT22;11962;50.838;4.430;2023-10-09T03:41:53;18.00;99.90
23568;DHT22;11962;50.838;4.430;2023-10-09T03:44:27;18.00;99.90
23568;DHT22;11962;50.838;4.430;2023-10-09T03:46:56;17.90;99.90
23568;DHT22;11962;50.838;4.430;2023-10-09T03:49:22;17.90;99.90
23568;DHT22;11962;50.838;4.430;2023-10-09T03:51:52;17.90;99.90
23568;DHT22;11962;50.838;4.430;2023-10-09T03:54:19;17.90;99.90
23568;DHT22;11962;50.838;4.430;2023-10-09T03:56:48;17.80;99.90
23568;DHT22;11962;50.838;4.430;2023-10-09T03:59:20;17.90;99.90
23568;DHT22;11962;50.838;4.430;2023-10-09T04:01:50;17.80;99.90
23568;DHT22;11962;50.838;4.430;2023-10-09T04:04:18;17.80;99.90
23568;DHT22;11962;50.838;4.430;2023-10-09T04:06:48;17.70;99.90
23568;DHT22;11962;50.838;4.430;2023-10-09T04:09:15;17.70;99.90
23568;DHT22;11962;50.838;4.430;2023-10-09T04:11:44;17.70;99.90
23568;DHT22;11962;50.838;4.430;2023-10-09T04:14:15;17.60;99.90
23568;DHT22;11962;50.838;4.430;2023-10-09T04:16:51;17.60;99.90
23568;DHT22;11962;50.838;4.430;2023-10-09T04:19:18;17.60;99.90
23568;DHT22;11962;50.838;4.430;2023-10-09T04:21:48;17.60;99.90
23568;DHT22;11962;50.838;4.430;2023-10-09T04:24:14;17.60;99.90
23568;DHT22;11962;50.838;4.430;2023-10-09T04:26:44;17.60;99.90
23568;DHT22;11962;50.838;4.430;2023-10-09T04:29:14;17.70;99.90
23568;DHT22;11962;50.838;4.430;2023-10-09T04:31:55;17.70;99.90
23568;DHT22;11962;50.838;4.430;2023-10-09T04:34:22;17.70;99.90
23568;DHT22;11962;50.838;4.430;2023-10-09T04:36:50;17.70;99.90
23568;DHT22;11962;50.838;4.430;2023-10-09T04:39:16;17.80;99.90
23568;DHT22;11962;50.838;4.430;2023-10-09T04:42:02;17.80;99.90
23568;DHT22;11962;50.838;4.430;2023-10-09T04:44:57;17.80;99.90
23568;DHT22;11962;50.838;4.430;2023-10-09T04:47:29;17.80;99.90
23568;DHT22;11962;50.838;4.430;2023-10-09T04:50:11;17.80;99.90
23568;DHT22;11962;50.838;4.430;2023-10-09T04:52:40;17.80;99.90
23568;DHT22;11962;50.838;4.430;2023-10-09T04:55:07;17.80;99.90
23568;DHT22;11962;50.838;4.430;2023-10-09T04:57:37;17.80;99.90
23568;DHT22;11962;50.838;4.430;2023-10-09T05:00:06;17.80;99.90
23568;DHT22;11962;50.838;4.430;2023-10-09T05:02:48;17.90;99.90
23568;DHT22;11962;50.838;4.430;2023-10-09T05:05:21;17.90;99.90
23568;DHT22;11962;50.838;4.430;2023-10-09T05:08:05;17.90;99.90
23568;DHT22;11962;50.838;4.430;2023-10-09T05:11:00;17.90;99.90
23568;DHT22;11962;50.838;4.430;2023-10-09T05:13:30;17.90;99.90
23568;DHT22;11962;50.838;4.430;2023-10-09T05:16:16;17.90;99.90
23568;DHT22;11962;50.838;4.430;2023-10-09T05:18:46;17.90;99.90
23568;DHT22;11962;50.838;4.430;2023-10-09T05:21:37;17.80;99.90
23568;DHT22;11962;50.838;4.430;2023-10-09T05:24:13;17.80;99.90
23568;DHT22;11962;50.838;4.430;2023-10-09T05:26:49;17.90;99.90
23568;DHT22;11962;50.838;4.430;2023-10-09T05:29:22;17.80;99.90
23568;DHT22;11962;50.838;4.430;2023-10-09T05:31:54;17.80;99.90
23568;DHT22;11962;50.838;4.430;2023-10-09T05:34:41;17.80;99.90
23568;DHT22;11962;50.838;4.430;2023-10-09T05:37:29;17.80;99.90
23568;DHT22;11962;50.838;4.430;2023-10-09T05:40:00;17.80;99.90
23568;DHT22;11962;50.838;4.430;2023-10-09T05:42:26;17.80;99.90
23568;DHT22;11962;50.838;4.430;2023-10-09T05:45:12;17.80;99.90
23568;DHT22;11962;50.838;4.430;2023-10-09T05:47:48;17.80;99.90
23568;DHT22;11962;50.838;4.430;2023-10-09T05:50:24;17.80;99.90
23568;DHT22;11962;50.838;4.430;2023-10-09T05:52:50;17.80;99.90
23568;DHT22;11962;50.838;4.430;2023-10-09T05:55:16;17.80;99.90
23568;DHT22;11962;50.838;4.430;2023-10-09T05:58:05;17.80;99.90
23568;DHT22;11962;50.838;4.430;2023-10-09T06:00:50;17.80;99.90
23568;DHT22;11962;50.838;4.430;2023-10-09T06:03:51;17.70;99.90
23568;DHT22;11962;50.838;4.430;2023-10-09T06:06:21;17.70;99.90
23568;DHT22;11962;50.838;4.430;2023-10-09T06:09:03;17.80;99.90
23568;DHT22;11962;50.838;4.430;2023-10-09T06:11:41;17.80;99.90
23568;DHT22;11962;50.838;4.430;2023-10-09T06:14:16;17.80;99.90
23568;DHT22;11962;50.838;4.430;2023-10-09T06:16:51;17.90;99.90
23568;DHT22;11962;50.838;4.430;2023-10-09T06:19:41;17.90;99.90
23568;DHT22;11962;50.838;4.430;2023-10-09T06:22:10;17.90;99.90
23568;DHT22;11962;50.838;4.430;2023-10-09T06:24:54;17.90;99.90
23568;DHT22;11962;50.838;4.430;2023-10-09T06:27:21;17.90;99.90
23568;DHT22;11962;50.838;4.430;2023-10-09T06:29:57;17.90;99.90
23568;DHT22;11962;50.838;4.430;2023-10-09T06:32:43;17.90;99.90
23568;DHT22;11962;50.838;4.430;2023-10-09T06:35:17;18.00;99.90
23568;DHT22;11962;50.838;4.430;2023-10-09T06:37:56;18.00;99.90
23568;DHT22;11962;50.838;4.430;2023-10-09T06:40:35;18.00;99.90
23568;DHT22;11962;50.838;4.430;2023-10-09T06:43:21;18.00;99.90
23568;DHT22;11962;50.838;4.430;2023-10-09T06:45:54;18.00;99.90
23568;DHT22;11962;50.838;4.430;2023-10-09T06:48:27;18.00;99.90
23568;DHT22;11962;50.838;4.430;2023-10-09T06:51:09;18.10;99.90
23568;DHT22;11962;50.838;4.430;2023-10-09T06:53:43;18.10;99.90
23568;DHT22;11962;50.838;4.430;2023-10-09T06:59:02;18.20;99.90
23568;DHT22;11962;50.838;4.430;2023-10-09T07:01:49;18.30;99.90
23568;DHT22;11962;50.838;4.430;2023-10-09T07:04:38;18.40;99.90
23568;DHT22;11962;50.838;4.430;2023-10-09T07:07:04;18.50;99.90
23568;DHT22;11962;50.838;4.430;2023-10-09T07:09:38;18.60;99.90
23568;DHT22;11962;50.838;4.430;2023-10-09T07:12:22;18.80;99.90
23568;DHT22;11962;50.838;4.430;2023-10-09T07:14:51;19.00;99.90
23568;DHT22;11962;50.838;4.430;2023-10-09T07:17:27;19.20;99.90
23568;DHT22;11962;50.838;4.430;2023-10-09T07:19:58;19.30;99.90
23568;DHT22;11962;50.838;4.430;2023-10-09T07:22:41;19.40;99.90
23568;DHT22;11962;50.838;4.430;2023-10-09T07:25:22;19.50;99.90
23568;DHT22;11962;50.838;4.430;2023-10-09T07:28:10;19.60;99.90
23568;DHT22;11962;50.838;4.430;2023-10-09T07:30:56;19.70;99.90
23568;DHT22;11962;50.838;4.430;2023-10-09T07:33:23;19.80;99.90
23568;DHT22;11962;50.838;4.430;2023-10-09T07:36:01;19.80;99.90
23568;DHT22;11962;50.838;4.430;2023-10-09T07:38:33;19.80;99.90
23568;DHT22;11962;50.838;4.430;2023-10-09T07:41:02;19.90;99.90
23568;DHT22;11962;50.838;4.430;2023-10-09T07:43:38;19.90;99.90
23568;DHT22;11962;50.838;4.430;2023-10-09T07:46:09;19.90;99.90
23568;DHT22;11962;50.838;4.430;2023-10-09T07:48:57;20.00;99.90
23568;DHT22;11962;50.838;4.430;2023-10-09T07:51:24;20.20;99.90
23568;DHT22;11962;50.838;4.430;2023-10-09T07:53:57;20.40;99.90
23568;DHT22;11962;50.838;4.430;2023-10-09T07:56:39;20.80;99.90
23568;DHT22;11962;50.838;4.430;2023-10-09T07:59:10;21.20;99.90
23568;DHT22;11962;50.838;4.430;2023-10-09T08:01:45;21.70;99.90
23568;DHT22;11962;50.838;4.430;2023-10-09T08:04:25;22.00;99.90
23568;DHT22;11962;50.838;4.430;2023-10-09T08:07:10;22.20;99.90
23568;DHT22;11962;50.838;4.430;2023-10-09T08:09:51;22.30;99.90
23568;DHT22;11962;50.838;4.430;2023-10-09T08:12:36;22.30;99.90
23568;DHT22;11962;50.838;4.430;2023-10-09T08:15:25;22.30;99.90
23568;DHT22;11962;50.838;4.430;2023-10-09T08:18:13;22.00;99.90
23568;DHT22;11962;50.838;4.430;2023-10-09T08:20:53;21.90;99.90
23568;DHT22;11962;50.838;4.430;2023-10-09T08:23:22;21.70;99.90
23568;DHT22;11962;50.838;4.430;2023-10-09T08:26:04;21.70;99.90
23568;DHT22;11962;50.838;4.430;2023-10-09T08:28:39;21.70;99.90
23568;DHT22;11962;50.838;4.430;2023-10-09T08:31:12;21.80;99.90
23568;DHT22;11962;50.838;4.430;2023-10-09T08:33:56;21.90;99.90
23568;DHT22;11962;50.838;4.430;2023-10-09T08:36:26;22.00;99.90
23568;DHT22;11962;50.838;4.430;2023-10-09T08:38:55;22.20;99.90
23568;DHT22;11962;50.838;4.430;2023-10-09T08:41:24;22.80;99.90
23568;DHT22;11962;50.838;4.430;2023-10-09T08:43:56;23.80;99.90
23568;DHT22;11962;50.838;4.430;2023-10-09T08:46:28;24.60;99.90
23568;DHT22;11962;50.838;4.430;2023-10-09T08:48:58;25.00;99.90
23568;DHT22;11962;50.838;4.430;2023-10-09T08:51:26;25.20;99.90
23568;DHT22;11962;50.838;4.430;2023-10-09T08:53:52;25.30;99.90
23568;DHT22;11962;50.838;4.430;2023-10-09T08:56:19;25.10;99.90
23568;DHT22;11962;50.838;4.430;2023-10-09T09:01:20;24.30;99.90
23568;DHT22;11962;50.838;4.430;2023-10-09T09:03:48;24.00;99.90
23568;DHT22;11962;50.838;4.430;2023-10-09T09:06:17;23.80;99.90
23568;DHT22;11962;50.838;4.430;2023-10-09T09:08:45;23.70;99.90
23568;DHT22;11962;50.838;4.430;2023-10-09T09:11:16;24.20;99.90
23568;DHT22;11962;50.838;4.430;2023-10-09T09:14:03;24.70;99.90
23568;DHT22;11962;50.838;4.430;2023-10-09T09:16:34;24.80;99.90
23568;DHT22;11962;50.838;4.430;2023-10-09T09:21:33;24.80;99.90
23568;DHT22;11962;50.838;4.430;2023-10-09T09:24:08;24.90;99.90
23568;DHT22;11962;50.838;4.430;2023-10-09T09:27:04;25.10;99.90
23568;DHT22;11962;50.838;4.430;2023-10-09T09:29:44;25.30;99.90
23568;DHT22;11962;50.838;4.430;2023-10-09T09:32:30;25.50;99.50
23568;DHT22;11962;50.838;4.430;2023-10-09T09:35:11;25.60;98.90
23568;DHT22;11962;50.838;4.430;2023-10-09T09:37:53;25.60;98.40
23568;DHT22;11962;50.838;4.430;2023-10-09T09:40:22;25.50;98.30
23568;DHT22;11962;50.838;4.430;2023-10-09T09:43:07;25.20;98.40
23568;DHT22;11962;50.838;4.430;2023-10-09T09:45:47;25.10;98.90
23568;DHT22;11962;50.838;4.430;2023-10-09T09:48:16;25.30;98.70
23568;DHT22;11962;50.838;4.430;2023-10-09T09:50:43;25.60;98.30
23568;DHT22;11962;50.838;4.430;2023-10-09T09:53:12;25.80;97.80
23568;DHT22;11962;50.838;4.430;2023-10-09T09:55:52;26.10;97.10
23568;DHT22;11962;50.838;4.430;2023-10-09T09:58:21;26.20;96.40
23568;DHT22;11962;50.838;4.430;2023-10-09T10:01:03;26.30;96.20
23568;DHT22;11962;50.838;4.430;2023-10-09T10:03:49;26.40;96.00
23568;DHT22;11962;50.838;4.430;2023-10-09T10:06:19;26.10;95.70
23568;DHT22;11962;50.838;4.430;2023-10-09T10:08:47;25.80;95.70
23568;DHT22;11962;50.838;4.430;2023-10-09T10:14:10;25.60;96.10
23568;DHT22;11962;50.838;4.430;2023-10-09T10:17:01;25.40;96.30
23568;DHT22;11962;50.838;4.430;2023-10-09T10:22:26;25.00;97.20
23568;DHT22;11962;50.838;4.430;2023-10-09T10:24:53;24.80;97.40
23568;DHT22;11962;50.838;4.430;2023-10-09T10:27:24;24.80;97.40
23568;DHT22;11962;50.838;4.430;2023-10-09T10:35:21;25.00;97.70
23568;DHT22;11962;50.838;4.430;2023-10-09T10:37:58;25.20;97.40
23568;DHT22;11962;50.838;4.430;2023-10-09T10:40:33;25.50;96.70
23568;DHT22;11962;50.838;4.430;2023-10-09T10:43:07;25.60;96.10
23568;DHT22;11962;50.838;4.430;2023-10-09T10:45:40;25.70;96.20
23568;DHT22;11962;50.838;4.430;2023-10-09T10:48:11;25.60;95.80
23568;DHT22;11962;50.838;4.430;2023-10-09T10:51:04;25.50;96.10
23568;DHT22;11962;50.838;4.430;2023-10-09T10:53:30;25.60;96.40
23568;DHT22;11962;50.838;4.430;2023-10-09T10:56:13;25.70;96.10
23568;DHT22;11962;50.838;4.430;2023-10-09T10:58:43;25.80;96.00
23568;DHT22;11962;50.838;4.430;2023-10-09T11:01:37;26.00;95.90
23568;DHT22;11962;50.838;4.430;2023-10-09T11:04:21;26.00;95.70
23568;DHT22;11962;50.838;4.430;2023-10-09T11:07:00;26.10;94.80
23568;DHT22;11962;50.838;4.430;2023-10-09T11:12:28;26.00;94.70
23568;DHT22;11962;50.838;4.430;2023-10-09T11:15:13;26.10;94.80
23568;DHT22;11962;50.838;4.430;2023-10-09T11:18:07;26.10;94.70
23568;DHT22;11962;50.838;4.430;2023-10-09T11:20:34;26.10;94.20
23568;DHT22;11962;50.838;4.430;2023-10-09T11:23:02;26.10;94.50
23568;DHT22;11962;50.838;4.430;2023-10-09T11:25:45;26.20;94.40
23568;DHT22;11962;50.838;4.430;2023-10-09T11:28:18;26.30;93.80
23568;DHT22;11962;50.838;4.430;2023-10-09T11:31:11;26.40;93.20
23568;DHT22;11962;50.838;4.430;2023-10-09T11:33:48;26.50;93.50
23568;DHT22;11962;50.838;4.430;2023-10-09T11:36:18;26.50;92.90
23568;DHT22;11962;50.838;4.430;2023-10-09T11:38:47;26.60;92.50
23568;DHT22;11962;50.838;4.430;2023-10-09T11:41:15;26.40;92.50
23568;DHT22;11962;50.838;4.430;2023-10-09T11:43:53;26.50;92.20
23568;DHT22;11962;50.838;4.430;2023-10-09T11:46:22;26.60;92.30
23568;DHT22;11962;50.838;4.430;2023-10-09T11:49:09;26.60;92.20
23568;DHT22;11962;50.838;4.430;2023-10-09T11:51:47;26.70;92.10
23568;DHT22;11962;50.838;4.430;2023-10-09T11:54:32;26.70;91.60
23568;DHT22;11962;50.838;4.430;2023-10-09T11:57:02;26.70;91.50
23568;DHT22;11962;50.838;4.430;2023-10-09T11:59:29;26.80;91.70
23568;DHT22;11962;50.838;4.430;2023-10-09T12:02:12;26.80;91.80
23568;DHT22;11962;50.838;4.430;2023-10-09T12:04:41;26.80;91.80
23568;DHT22;11962;50.838;4.430;2023-10-09T12:07:10;26.90;91.60
23568;DHT22;11962;50.838;4.430;2023-10-09T12:09:39;26.80;91.60
23568;DHT22;11962;50.838;4.430;2023-10-09T12:12:07;26.70;91.80
23568;DHT22;11962;50.838;4.430;2023-10-09T12:14:35;26.70;92.20
23568;DHT22;11962;50.838;4.430;2023-10-09T12:17:04;26.80;91.70
23568;DHT22;11962;50.838;4.430;2023-10-09T12:19:33;26.80;91.70
23568;DHT22;11962;50.838;4.430;2023-10-09T12:22:00;26.70;91.60
23568;DHT22;11962;50.838;4.430;2023-10-09T12:24:29;26.70;91.70
23568;DHT22;11962;50.838;4.430;2023-10-09T12:26:55;26.70;91.70
23568;DHT22;11962;50.838;4.430;2023-10-09T12:29:22;26.70;91.50
23568;DHT22;11962;50.838;4.430;2023-10-09T12:31:49;26.70;91.50
23568;DHT22;11962;50.838;4.430;2023-10-09T12:34:24;26.60;91.60
23568;DHT22;11962;50.838;4.430;2023-10-09T12:36:56;26.60;91.40
23568;DHT22;11962;50.838;4.430;2023-10-09T12:39:22;26.50;91.60
23568;DHT22;11962;50.838;4.430;2023-10-09T12:41:48;26.50;91.70
23568;DHT22;11962;50.838;4.430;2023-10-09T12:44:14;26.50;92.10
23568;DHT22;11962;50.838;4.430;2023-10-09T12:46:43;26.40;91.90
23568;DHT22;11962;50.838;4.430;2023-10-09T12:49:19;26.40;91.70
23568;DHT22;11962;50.838;4.430;2023-10-09T12:51:45;26.40;91.20
23568;DHT22;11962;50.838;4.430;2023-10-09T12:54:11;26.40;91.30
23568;DHT22;11962;50.838;4.430;2023-10-09T12:56:40;26.40;91.30
23568;DHT22;11962;50.838;4.430;2023-10-09T12:59:06;26.40;91.50
23568;DHT22;11962;50.838;4.430;2023-10-09T13:01:33;26.30;91.50
23568;DHT22;11962;50.838;4.430;2023-10-09T13:04:11;26.20;91.80
23568;DHT22;11962;50.838;4.430;2023-10-09T13:06:40;26.20;91.90
23568;DHT22;11962;50.838;4.430;2023-10-09T13:09:16;26.30;92.00
23568;DHT22;11962;50.838;4.430;2023-10-09T13:11:50;26.30;91.70
23568;DHT22;11962;50.838;4.430;2023-10-09T13:14:16;26.20;91.80
23568;DHT22;11962;50.838;4.430;2023-10-09T13:16:43;26.10;92.10
23568;DHT22;11962;50.838;4.430;2023-10-09T13:19:09;26.10;92.10
23568;DHT22;11962;50.838;4.430;2023-10-09T13:21:35;25.90;92.50
23568;DHT22;11962;50.838;4.430;2023-10-09T13:24:10;25.90;92.60
23568;DHT22;11962;50.838;4.430;2023-10-09T13:26:42;25.90;92.60
23568;DHT22;11962;50.838;4.430;2023-10-09T13:29:10;25.90;92.80
23568;DHT22;11962;50.838;4.430;2023-10-09T13:31:37;25.80;93.10
23568;DHT22;11962;50.838;4.430;2023-10-09T13:34:06;25.80;93.20
23568;DHT22;11962;50.838;4.430;2023-10-09T13:36:35;25.70;93.30
23568;DHT22;11962;50.838;4.430;2023-10-09T13:39:06;25.70;93.50
23568;DHT22;11962;50.838;4.430;2023-10-09T13:41:52;25.70;93.80
23568;DHT22;11962;50.838;4.430;2023-10-09T13:44:31;25.80;93.80
23568;DHT22;11962;50.838;4.430;2023-10-09T13:46:58;25.90;93.80
23568;DHT22;11962;50.838;4.430;2023-10-09T13:49:25;25.90;93.60
23568;DHT22;11962;50.838;4.430;2023-10-09T13:51:57;25.80;93.50
23568;DHT22;11962;50.838;4.430;2023-10-09T13:54:23;25.80;93.70
23568;DHT22;11962;50.838;4.430;2023-10-09T13:56:55;25.70;93.60
23568;DHT22;11962;50.838;4.430;2023-10-09T13:59:21;25.70;94.00
23568;DHT22;11962;50.838;4.430;2023-10-09T14:01:49;25.70;94.10
23568;DHT22;11962;50.838;4.430;2023-10-09T14:04:15;25.70;94.20
23568;DHT22;11962;50.838;4.430;2023-10-09T14:06:44;25.70;94.20
23568;DHT22;11962;50.838;4.430;2023-10-09T14:09:10;25.50;94.20
23568;DHT22;11962;50.838;4.430;2023-10-09T14:11:37;25.50;94.50
23568;DHT22;11962;50.838;4.430;2023-10-09T14:14:09;25.60;94.60
23568;DHT22;11962;50.838;4.430;2023-10-09T14:16:37;25.80;94.40
23568;DHT22;11962;50.838;4.430;2023-10-09T14:19:08;25.90;94.70
23568;DHT22;11962;50.838;4.430;2023-10-09T14:21:38;25.90;94.50
23568;DHT22;11962;50.838;4.430;2023-10-09T14:24:06;25.90;94.80
23568;DHT22;11962;50.838;4.430;2023-10-09T14:26:43;25.90;94.80
23568;DHT22;11962;50.838;4.430;2023-10-09T14:29:14;25.90;94.80
23568;DHT22;11962;50.838;4.430;2023-10-09T14:31:43;25.80;94.90
23568;DHT22;11962;50.838;4.430;2023-10-09T14:34:14;25.80;95.10
23568;DHT22;11962;50.838;4.430;2023-10-09T14:36:40;25.70;95.20
23568;DHT22;11962;50.838;4.430;2023-10-09T14:39:09;25.70;95.30
23568;DHT22;11962;50.838;4.430;2023-10-09T14:41:39;25.70;95.40
23568;DHT22;11962;50.838;4.430;2023-10-09T14:44:06;25.60;95.50
23568;DHT22;11962;50.838;4.430;2023-10-09T14:46:32;25.40;95.90
23568;DHT22;11962;50.838;4.430;2023-10-09T14:48:57;25.30;96.40
23568;DHT22;11962;50.838;4.430;2023-10-09T14:51:25;25.30;96.70
23568;DHT22;11962;50.838;4.430;2023-10-09T14:53:58;25.20;97.00
23568;DHT22;11962;50.838;4.430;2023-10-09T14:56:25;25.10;97.20
23568;DHT22;11962;50.838;4.430;2023-10-09T14:58:59;25.00;97.60
23568;DHT22;11962;50.838;4.430;2023-10-09T15:01:26;24.90;98.00
23568;DHT22;11962;50.838;4.430;2023-10-09T15:03:55;24.90;98.20
23568;DHT22;11962;50.838;4.430;2023-10-09T15:06:23;24.70;98.70
23568;DHT22;11962;50.838;4.430;2023-10-09T15:08:50;24.70;98.80
23568;DHT22;11962;50.838;4.430;2023-10-09T15:11:16;24.60;98.90
23568;DHT22;11962;50.838;4.430;2023-10-09T15:13:41;24.60;99.20
23568;DHT22;11962;50.838;4.430;2023-10-09T15:16:07;24.60;99.60
23568;DHT22;11962;50.838;4.430;2023-10-09T15:18:33;24.50;99.60
23568;DHT22;11962;50.838;4.430;2023-10-09T15:20:59;24.50;99.80
23568;DHT22;11962;50.838;4.430;2023-10-09T15:23:26;24.40;99.90
23568;DHT22;11962;50.838;4.430;2023-10-09T15:25:52;24.30;99.90
23568;DHT22;11962;50.838;4.430;2023-10-09T15:28:22;24.10;99.90
23568;DHT22;11962;50.838;4.430;2023-10-09T15:30:48;24.00;99.90
23568;DHT22;11962;50.838;4.430;2023-10-09T15:33:15;23.90;99.90
23568;DHT22;11962;50.838;4.430;2023-10-09T15:35:45;23.80;99.90
23568;DHT22;11962;50.838;4.430;2023-10-09T15:38:12;23.70;99.90
23568;DHT22;11962;50.838;4.430;2023-10-09T15:40:39;23.60;99.90
23568;DHT22;11962;50.838;4.430;2023-10-09T15:43:09;23.50;99.90
23568;DHT22;11962;50.838;4.430;2023-10-09T15:45:42;23.50;99.90
23568;DHT22;11962;50.838;4.430;2023-10-09T15:48:12;23.50;99.90
23568;DHT22;11962;50.838;4.430;2023-10-09T15:50:38;23.50;99.90
23568;DHT22;11962;50.838;4.430;2023-10-09T15:53:12;23.40;99.90
23568;DHT22;11962;50.838;4.430;2023-10-09T15:55:38;23.40;99.90
23568;DHT22;11962;50.838;4.430;2023-10-09T15:58:04;23.30;99.90
23568;DHT22;11962;50.838;4.430;2023-10-09T16:00:34;23.20;99.90
23568;DHT22;11962;50.838;4.430;2023-10-09T16:02:59;23.10;99.90
23568;DHT22;11962;50.838;4.430;2023-10-09T16:05:26;23.00;99.90
23568;DHT22;11962;50.838;4.430;2023-10-09T16:07:56;23.00;99.90
23568;DHT22;11962;50.838;4.430;2023-10-09T16:10:22;22.90;99.90
23568;DHT22;11962;50.838;4.430;2023-10-09T16:12:48;22.80;99.90
23568;DHT22;11962;50.838;4.430;2023-10-09T16:15:17;22.70;99.90
23568;DHT22;11962;50.838;4.430;2023-10-09T16:17:46;22.60;99.90
23568;DHT22;11962;50.838;4.430;2023-10-09T16:20:13;22.50;99.90
23568;DHT22;11962;50.838;4.430;2023-10-09T16:22:49;22.50;99.90
23568;DHT22;11962;50.838;4.430;2023-10-09T16:25:15;22.40;99.90
23568;DHT22;11962;50.838;4.430;2023-10-09T16:27:46;22.30;99.90
23568;DHT22;11962;50.838;4.430;2023-10-09T16:30:22;22.20;99.90
23568;DHT22;11962;50.838;4.430;2023-10-09T16:32:48;22.10;99.90
23568;DHT22;11962;50.838;4.430;2023-10-09T16:35:16;22.00;99.90